createdAt,value
2018-08-22T00:07:26.310Z,23.94
2018-08-22T00:09:54.549Z,23.90
2018-08-22T00:12:22.792Z,23.87
2018-08-22T00:14:51.030Z,23.82
2018-08-22T00:17:19.270Z,23.80
2018-08-22T00:19:47.497Z,23.78
2018-08-22T00:22:15.718Z,23.74
2018-08-22T00:24:44.313Z,23.73
2018-08-22T00:27:12.561Z,23.72
2018-08-22T00:29:40.796Z,23.72
2018-08-22T00:32:09.004Z,23.72
2018-08-22T00:34:37.252Z,23.71
2018-08-22T00:37:05.691Z,23.75
2018-08-22T00:39:33.951Z,23.73
2018-08-22T00:42:02.228Z,23.74
2018-08-22T00:44:30.557Z,23.74
2018-08-22T00:46:58.773Z,23.72
2018-08-22T00:49:26.990Z,23.71
2018-08-22T00:51:55.200Z,23.69
2018-08-22T00:54:23.458Z,23.69
2018-08-22T00:56:51.681Z,23.66
2018-08-22T00:59:19.911Z,23.64
2018-08-22T01:01:48.125Z,23.61
2018-08-22T01:04:16.345Z,23.60
2018-08-22T01:06:44.641Z,23.56
2018-08-22T01:09:12.845Z,23.53
2018-08-22T01:11:41.081Z,23.50
2018-08-22T01:14:09.280Z,23.47
2018-08-22T01:16:37.567Z,23.44
2018-08-22T01:19:05.791Z,23.43
2018-08-22T01:21:34.033Z,23.42
2018-08-22T01:24:02.282Z,23.39
2018-08-22T01:26:30.633Z,23.36
2018-08-22T01:28:58.885Z,23.35
2018-08-22T01:31:27.112Z,23.32
2018-08-22T01:33:55.328Z,23.30
2018-08-22T01:36:23.552Z,23.30
2018-08-22T01:38:51.749Z,23.26
2018-08-22T01:41:19.980Z,23.22
2018-08-22T01:43:48.201Z,23.16
2018-08-22T01:46:16.540Z,23.11
2018-08-22T01:48:44.767Z,23.07
2018-08-22T01:51:13.076Z,23.06
2018-08-22T01:53:41.375Z,23.06
2018-08-22T01:56:09.594Z,23.07
2018-08-22T01:58:37.838Z,23.07
2018-08-22T02:01:06.068Z,23.07
2018-08-22T02:03:34.361Z,23.07
2018-08-22T02:06:02.581Z,23.02
2018-08-22T02:08:30.826Z,22.99
2018-08-22T02:10:59.032Z,22.97
2018-08-22T02:13:27.316Z,22.96
2018-08-22T02:15:55.520Z,22.93
2018-08-22T02:18:23.743Z,22.89
2018-08-22T02:20:51.953Z,22.84
2018-08-22T02:23:20.180Z,22.81
2018-08-22T02:25:48.436Z,22.79
2018-08-22T02:28:16.678Z,22.77
2018-08-22T02:30:44.889Z,22.75
2018-08-22T02:33:13.101Z,22.73
2018-08-22T02:35:41.352Z,22.72
2018-08-22T02:38:09.600Z,22.70
2018-08-22T02:40:37.822Z,22.69
2018-08-22T02:43:06.045Z,22.68
2018-08-22T02:45:34.262Z,22.67
2018-08-22T02:48:02.477Z,22.64
2018-08-22T02:50:30.680Z,22.63
2018-08-22T02:52:58.901Z,22.62
2018-08-22T02:55:27.145Z,22.62
2018-08-22T02:57:55.352Z,22.62
2018-08-22T03:00:23.549Z,22.61
2018-08-22T03:02:51.873Z,22.59
2018-08-22T03:05:20.098Z,22.57
2018-08-22T03:07:48.328Z,22.56
2018-08-22T03:10:16.541Z,22.54
2018-08-22T03:12:44.777Z,22.53
2018-08-22T03:15:13.003Z,22.51
2018-08-22T03:17:41.281Z,22.50
2018-08-22T03:20:16.157Z,22.50
2018-08-22T03:22:44.379Z,22.49
2018-08-22T03:25:12.613Z,22.48
2018-08-22T03:27:40.896Z,22.45
2018-08-22T03:30:09.105Z,22.41
2018-08-22T03:32:37.337Z,22.40
2018-08-22T03:35:05.553Z,22.37
2018-08-22T03:37:33.792Z,22.34
2018-08-22T03:40:02.013Z,22.32
2018-08-22T03:42:30.295Z,22.28
2018-08-22T03:44:58.513Z,22.27
2018-08-22T03:47:26.722Z,22.24
2018-08-22T03:49:54.928Z,22.23
2018-08-22T03:52:23.145Z,22.23
2018-08-22T03:54:51.361Z,22.21
2018-08-22T03:57:19.683Z,22.18
2018-08-22T03:59:47.912Z,22.15
2018-08-22T04:02:16.169Z,22.12
2018-08-22T04:04:44.518Z,22.09
2018-08-22T04:07:12.734Z,22.06
2018-08-22T04:09:40.957Z,22.02
2018-08-22T04:12:09.193Z,21.99
2018-08-22T04:14:37.397Z,21.94
2018-08-22T04:17:05.896Z,21.92
2018-08-22T04:19:34.136Z,21.90
2018-08-22T04:22:02.396Z,21.89
2018-08-22T04:24:30.628Z,21.89
2018-08-22T04:26:58.880Z,21.86
2018-08-22T04:29:27.536Z,21.85
2018-08-22T04:31:55.798Z,21.83
2018-08-22T04:34:24.012Z,21.81
2018-08-22T04:36:52.216Z,21.82
2018-08-22T04:39:20.432Z,21.84
2018-08-22T04:41:48.668Z,21.85
2018-08-22T04:44:16.885Z,21.86
2018-08-22T04:46:45.080Z,21.86
2018-08-22T04:49:13.300Z,21.85
2018-08-22T04:51:41.509Z,21.86
2018-08-22T04:54:09.761Z,21.87
2018-08-22T04:56:38.021Z,21.88
2018-08-22T04:59:06.236Z,21.88
2018-08-22T05:01:34.497Z,21.85
2018-08-22T05:04:02.705Z,21.87
2018-08-22T05:06:30.929Z,21.86
2018-08-22T05:08:59.165Z,21.87
2018-08-22T05:11:27.421Z,21.88
2018-08-22T05:13:55.692Z,21.89
2018-08-22T05:16:23.893Z,21.88
2018-08-22T05:18:52.129Z,21.89
2018-08-22T05:21:20.382Z,21.88
2018-08-22T05:23:48.584Z,21.88
2018-08-22T05:26:16.872Z,21.88
2018-08-22T05:28:45.120Z,21.88
2018-08-22T05:31:13.326Z,21.88
2018-08-22T05:33:41.602Z,21.89
2018-08-22T05:36:09.816Z,21.90
2018-08-22T05:38:38.037Z,21.90
2018-08-22T05:41:06.278Z,21.90
2018-08-22T05:43:34.505Z,21.90
2018-08-22T05:46:02.733Z,21.85
2018-08-22T05:48:30.965Z,21.73
2018-08-22T05:50:59.245Z,21.61
2018-08-22T05:53:27.510Z,21.53
2018-08-22T05:55:55.733Z,21.46
2018-08-22T05:58:23.960Z,21.42
2018-08-22T06:00:52.160Z,21.40
2018-08-22T06:03:20.456Z,21.40
2018-08-22T06:05:48.592Z,21.40
2018-08-22T06:08:16.833Z,21.40
2018-08-22T06:10:45.037Z,21.39
2018-08-22T06:13:13.297Z,21.37
2018-08-22T06:15:41.531Z,21.38
2018-08-22T06:18:10.020Z,21.41
2018-08-22T06:20:38.584Z,21.44
2018-08-22T06:23:07.284Z,21.47
2018-08-22T06:25:35.559Z,21.52
2018-08-22T06:28:03.794Z,21.54
2018-08-22T06:30:32.022Z,21.56
2018-08-22T06:33:00.303Z,21.58
2018-08-22T06:35:28.548Z,21.63
2018-08-22T06:37:57.023Z,21.66
2018-08-22T06:40:25.235Z,21.68
2018-08-22T06:42:53.473Z,21.71
2018-08-22T06:45:21.701Z,21.74
2018-08-22T06:47:49.929Z,21.80
2018-08-22T06:50:18.189Z,21.83
2018-08-22T06:52:46.350Z,21.86
2018-08-22T06:55:14.588Z,21.91
2018-08-22T06:57:42.885Z,21.97
2018-08-22T07:00:11.109Z,22.04
2018-08-22T07:02:39.319Z,22.09
2018-08-22T07:05:07.536Z,22.15
2018-08-22T07:07:35.781Z,22.21
2018-08-22T07:10:04.070Z,22.26
2018-08-22T07:12:32.367Z,22.23
2018-08-22T07:15:00.604Z,22.22
2018-08-22T07:17:28.818Z,22.17
2018-08-22T07:19:57.032Z,22.13
2018-08-22T07:22:25.241Z,22.06
2018-08-22T07:24:53.487Z,22.05
2018-08-22T07:27:21.766Z,22.06
2018-08-22T07:29:50.089Z,22.08
2018-08-22T07:32:18.549Z,22.14
2018-08-22T07:34:47.169Z,22.17
2018-08-22T07:37:15.665Z,22.14
2018-08-22T07:39:43.920Z,22.17
2018-08-22T07:42:12.143Z,22.20
2018-08-22T07:44:40.348Z,22.17
2018-08-22T07:47:08.661Z,22.25
2018-08-22T07:49:36.861Z,22.29
2018-08-22T07:52:05.077Z,22.31
2018-08-22T07:54:50.793Z,22.37
2018-08-22T07:57:21.708Z,22.40
2018-08-22T07:59:50.596Z,22.43
2018-08-22T08:02:18.969Z,22.48
2018-08-22T08:04:47.306Z,22.47
2018-08-22T08:07:15.789Z,22.52
2018-08-22T08:09:44.073Z,22.55
2018-08-22T08:12:12.361Z,22.58
2018-08-22T08:14:40.589Z,22.65
2018-08-22T08:17:08.880Z,22.68
2018-08-22T08:19:37.093Z,22.71
2018-08-22T08:22:05.369Z,22.75
2018-08-22T08:24:33.601Z,22.75
2018-08-22T08:27:01.837Z,22.82
2018-08-22T08:29:30.077Z,22.85
2018-08-22T08:31:58.353Z,22.88
2018-08-22T08:34:26.549Z,22.92
2018-08-22T08:36:54.774Z,22.96
2018-08-22T08:39:22.968Z,23.00
2018-08-22T08:41:51.189Z,23.05
2018-08-22T08:44:19.423Z,23.11
2018-08-22T08:46:47.965Z,23.15
2018-08-22T08:49:16.176Z,23.14
2018-08-22T08:51:56.562Z,23.18
2018-08-22T08:54:24.809Z,23.23
2018-08-22T08:56:53.161Z,23.25
2018-08-22T08:59:21.445Z,23.29
2018-08-22T09:01:49.744Z,23.34
2018-08-22T09:04:17.980Z,23.38
2018-08-22T09:06:46.385Z,23.40
2018-08-22T09:09:14.597Z,23.46
2018-08-22T09:11:57.922Z,23.52
2018-08-22T09:14:26.610Z,23.57
2018-08-22T09:16:55.215Z,23.61
2018-08-22T09:19:23.472Z,23.63
2018-08-22T09:21:51.697Z,23.66
2018-08-22T09:24:19.928Z,23.67
2018-08-22T09:26:48.193Z,23.69
2018-08-22T09:29:16.431Z,23.74
2018-08-22T09:31:44.646Z,23.78
2018-08-22T09:34:12.906Z,23.77
2018-08-22T09:36:41.118Z,23.81
2018-08-22T09:39:11.564Z,23.85
2018-08-22T09:41:39.784Z,23.87
2018-08-22T09:44:08.362Z,23.91
2018-08-22T09:46:37.145Z,23.97
2018-08-22T09:49:05.385Z,23.98
2018-08-22T09:51:33.625Z,23.99
2018-08-22T09:54:01.849Z,24.04
2018-08-22T09:56:30.093Z,24.07
2018-08-22T09:58:58.316Z,24.12
2018-08-22T10:01:31.911Z,24.23
2018-08-22T10:04:01.089Z,24.31
2018-08-22T10:06:48.627Z,24.37
2018-08-22T10:09:20.585Z,24.41
2018-08-22T10:11:48.797Z,24.47
2018-08-22T10:14:17.068Z,24.56
2018-08-22T10:16:45.335Z,24.58
2018-08-22T10:19:13.550Z,24.61
2018-08-22T10:21:41.857Z,24.72
2018-08-22T10:24:10.070Z,24.85
2018-08-22T10:26:38.846Z,24.98
2018-08-22T10:29:07.085Z,25.12
2018-08-22T10:31:35.325Z,25.35
2018-08-22T10:34:03.569Z,25.60
2018-08-22T10:36:31.784Z,25.86
2018-08-22T10:39:00.013Z,26.12
2018-08-22T10:41:28.221Z,26.28
2018-08-22T10:43:56.535Z,26.56
2018-08-22T10:46:31.285Z,26.76
2018-08-22T10:48:59.493Z,26.92
2018-08-22T10:51:27.700Z,27.10
2018-08-22T10:53:55.956Z,27.22
2018-08-22T10:56:24.349Z,27.35
2018-08-22T10:58:52.556Z,27.53
2018-08-22T11:01:20.797Z,27.72
2018-08-22T11:03:49.009Z,27.88
2018-08-22T11:06:17.229Z,28.02
2018-08-22T11:08:45.441Z,28.09
2018-08-22T11:11:13.673Z,28.19
2018-08-22T11:13:41.868Z,28.31
2018-08-22T11:16:10.272Z,28.36
2018-08-22T11:18:38.412Z,28.45
2018-08-22T11:21:17.865Z,28.53
2018-08-22T11:23:57.379Z,28.60
2018-08-22T11:26:36.820Z,28.69
2018-08-22T11:29:16.329Z,28.79
2018-08-22T11:31:55.940Z,28.88
2018-08-22T11:34:35.476Z,28.97
2018-08-22T11:37:06.636Z,29.03
2018-08-22T11:39:34.930Z,29.10
2018-08-22T11:42:03.804Z,29.17
2018-08-22T11:44:32.005Z,29.34
2018-08-22T11:47:00.788Z,29.49
2018-08-22T11:49:29.596Z,29.57
2018-08-22T11:51:58.188Z,29.61
2018-08-22T11:54:26.671Z,29.64
2018-08-22T11:56:54.897Z,29.69
2018-08-22T11:59:23.124Z,29.74
2018-08-22T12:01:51.669Z,29.84
2018-08-22T12:04:20.339Z,29.87
2018-08-22T12:06:48.601Z,30.01
2018-08-22T12:09:16.891Z,30.04
2018-08-22T12:11:45.122Z,30.05
2018-08-22T12:14:13.349Z,30.10
2018-08-22T12:16:41.997Z,30.15
2018-08-22T12:19:10.687Z,30.26
2018-08-22T12:21:39.589Z,30.38
2018-08-22T12:24:07.857Z,30.44
2018-08-22T12:26:36.224Z,30.49
2018-08-22T12:29:04.560Z,30.52
2018-08-22T12:31:32.917Z,30.53
2018-08-22T12:34:01.141Z,30.57
2018-08-22T12:36:29.392Z,30.61
2018-08-22T12:38:57.652Z,30.67
2018-08-22T12:41:26.408Z,30.67
2018-08-22T12:43:54.929Z,30.74
2018-08-22T12:46:23.421Z,30.84
2018-08-22T12:48:51.642Z,30.85
2018-08-22T12:51:20.065Z,30.95
2018-08-22T12:53:48.286Z,30.95
2018-08-22T12:56:16.549Z,31.03
2018-08-22T12:58:44.831Z,31.09
2018-08-22T13:01:13.041Z,31.15
2018-08-22T13:03:41.333Z,31.24
2018-08-22T13:06:09.633Z,31.33
2018-08-22T13:08:37.929Z,31.52
2018-08-22T13:11:06.206Z,31.59
2018-08-22T13:13:34.368Z,31.68
2018-08-22T13:16:02.761Z,31.74
2018-08-22T13:18:31.024Z,31.81
2018-08-22T13:20:59.245Z,31.89
2018-08-22T13:23:27.452Z,32.00
2018-08-22T13:25:55.661Z,32.13
2018-08-22T13:28:23.893Z,32.18
2018-08-22T13:30:52.104Z,32.26
2018-08-22T13:33:20.314Z,32.46
2018-08-22T13:35:48.533Z,32.74
2018-08-22T13:38:16.788Z,32.97
2018-08-22T13:40:44.993Z,33.08
2018-08-22T13:43:13.205Z,33.14
2018-08-22T13:45:41.476Z,33.17
2018-08-22T13:48:09.689Z,33.15
2018-08-22T13:50:37.941Z,33.20
2018-08-22T13:53:06.156Z,33.34
2018-08-22T13:55:34.685Z,33.49
2018-08-22T13:58:02.904Z,33.59
2018-08-22T14:00:31.125Z,33.66
2018-08-22T14:02:59.313Z,33.76
2018-08-22T14:05:27.509Z,33.78
2018-08-22T14:07:55.824Z,33.75
2018-08-22T14:10:24.033Z,33.62
2018-08-22T14:12:52.244Z,33.49
2018-08-22T14:15:20.441Z,33.30
2018-08-22T14:17:48.653Z,33.13
2018-08-22T14:20:16.873Z,32.96
2018-08-22T14:22:45.116Z,32.86
2018-08-22T14:25:13.350Z,32.68
2018-08-22T14:27:41.612Z,32.64
2018-08-22T14:30:09.820Z,32.54
2018-08-22T14:32:38.053Z,32.44
2018-08-22T14:35:06.361Z,32.36
2018-08-22T14:37:34.584Z,32.42
2018-08-22T14:40:02.869Z,32.63
2018-08-22T14:42:31.197Z,32.84
2018-08-22T14:44:59.494Z,33.00
2018-08-22T14:47:27.734Z,33.16
2018-08-22T14:49:56.021Z,33.29
2018-08-22T14:52:24.260Z,33.39
2018-08-22T14:54:52.573Z,33.40
2018-08-22T14:57:20.808Z,33.41
2018-08-22T14:59:49.029Z,33.31
2018-08-22T15:02:17.351Z,33.02
2018-08-22T15:04:45.497Z,32.66
2018-08-22T15:07:13.749Z,32.30
2018-08-22T15:09:41.974Z,32.04
2018-08-22T15:12:10.281Z,31.73
2018-08-22T15:14:38.627Z,31.58
2018-08-22T15:17:06.849Z,31.47
2018-08-22T15:19:35.130Z,31.30
2018-08-22T15:22:03.348Z,31.23
2018-08-22T15:24:31.755Z,31.21
2018-08-22T15:26:59.963Z,31.16
2018-08-22T15:29:28.212Z,31.14
2018-08-22T15:31:56.412Z,31.10
2018-08-22T15:34:31.540Z,31.07
2018-08-22T15:36:59.796Z,31.05
2018-08-22T15:39:28.041Z,31.07
2018-08-22T15:41:56.467Z,31.15
2018-08-22T15:44:24.639Z,31.24
2018-08-22T15:46:53.028Z,31.37
2018-08-22T15:49:21.268Z,31.42
2018-08-22T15:51:49.480Z,31.52
2018-08-22T15:54:17.710Z,31.54
2018-08-22T15:56:45.945Z,31.61
2018-08-22T15:59:14.253Z,31.72
2018-08-22T16:01:42.522Z,31.73
2018-08-22T16:04:11.013Z,31.78
2018-08-22T16:06:39.224Z,31.88
2018-08-22T16:09:10.703Z,32.20
2018-08-22T16:11:38.930Z,32.43
2018-08-22T16:14:07.221Z,32.63
2018-08-22T16:16:35.428Z,32.80
2018-08-22T16:19:04.116Z,32.99
2018-08-22T16:21:32.465Z,33.21
2018-08-22T16:24:00.743Z,33.40
2018-08-22T16:26:29.005Z,33.51
2018-08-22T16:28:58.806Z,33.51
2018-08-22T16:31:32.525Z,33.33
2018-08-22T16:34:00.756Z,33.25
2018-08-22T16:36:29.498Z,33.08
2018-08-22T16:38:58.061Z,32.78
2018-08-22T16:41:26.265Z,32.61
2018-08-22T16:43:54.513Z,32.39
2018-08-22T16:46:22.740Z,32.15
2018-08-22T16:48:52.708Z,31.94
2018-08-22T16:51:21.415Z,31.64
2018-08-22T16:54:22.637Z,31.37
2018-08-22T16:56:50.865Z,31.06
2018-08-22T16:59:20.748Z,30.91
2018-08-22T17:01:52.797Z,30.75
2018-08-22T17:04:20.985Z,30.63
2018-08-22T17:06:49.225Z,30.49
2018-08-22T17:09:17.456Z,30.35
2018-08-22T17:11:45.688Z,30.22
2018-08-22T17:14:14.081Z,30.11
2018-08-22T17:16:42.305Z,29.95
2018-08-22T17:19:10.581Z,29.88
2018-08-22T17:21:38.872Z,29.73
2018-08-22T17:24:07.093Z,29.60
2018-08-22T17:26:35.331Z,29.47
2018-08-22T17:29:03.555Z,29.33
2018-08-22T17:31:31.805Z,29.20
2018-08-22T17:34:02.329Z,29.12
2018-08-22T17:36:30.658Z,29.04
2018-08-22T17:39:00.049Z,28.96
2018-08-22T17:41:29.485Z,28.89
2018-08-22T17:44:09.265Z,28.82
2018-08-22T17:46:41.786Z,28.76
2018-08-22T17:49:09.995Z,28.70
2018-08-22T17:52:05.114Z,28.63
2018-08-22T17:54:33.731Z,28.57
2018-08-22T17:57:14.188Z,28.50
2018-08-22T17:59:43.400Z,28.44
2018-08-22T18:02:11.989Z,28.37
2018-08-22T18:05:12.289Z,28.32
2018-08-22T18:07:40.674Z,28.26
2018-08-22T18:10:08.933Z,28.20
2018-08-22T18:12:37.180Z,28.14
2018-08-22T18:15:05.489Z,28.11
2018-08-22T18:17:33.763Z,28.07
2018-08-22T18:20:01.973Z,28.05
2018-08-22T18:22:32.309Z,28.00
2018-08-22T18:25:00.528Z,27.95
2018-08-22T18:27:28.849Z,27.90
2018-08-22T18:29:57.023Z,27.84
2018-08-22T18:32:25.237Z,27.81
2018-08-22T18:35:01.909Z,27.76
2018-08-22T18:39:38.093Z,27.70
2018-08-22T18:42:06.342Z,27.57
2018-08-22T18:44:34.608Z,27.51
2018-08-22T18:47:03.101Z,27.47
2018-08-22T18:49:31.324Z,27.42
2018-08-22T18:51:59.554Z,27.38
2018-08-22T18:57:34.454Z,27.27
2018-08-22T19:00:04.353Z,27.23
2018-08-22T19:02:32.999Z,27.18
2018-08-22T19:05:27.231Z,27.13
2018-08-22T19:08:06.104Z,27.09
2018-08-22T19:10:35.524Z,27.04
2018-08-22T19:13:09.021Z,26.99
2018-08-22T19:15:37.894Z,26.95
2018-08-22T19:18:07.921Z,26.91
2018-08-22T19:20:42.632Z,26.88
2018-08-22T19:23:10.828Z,26.84
2018-08-22T19:25:39.161Z,26.81
2018-08-22T19:28:07.349Z,26.78
2018-08-22T19:30:37.309Z,26.74
2018-08-22T19:33:09.544Z,26.71
2018-08-22T19:35:37.792Z,26.70
2018-08-22T19:38:06.873Z,26.69
2018-08-22T19:40:35.680Z,26.68
2018-08-22T19:43:03.959Z,26.65
2018-08-22T19:45:32.897Z,26.60
2018-08-22T19:48:01.121Z,26.56
2018-08-22T19:50:30.217Z,26.53
2018-08-22T19:52:58.465Z,26.50
2018-08-22T19:55:26.698Z,26.46
2018-08-22T19:57:54.924Z,26.43
2018-08-22T20:00:23.135Z,26.40
2018-08-22T20:02:51.453Z,26.37
2018-08-22T20:05:19.686Z,26.33
2018-08-22T20:07:47.889Z,26.33
2018-08-22T20:10:20.286Z,26.30
2018-08-22T20:12:51.517Z,26.26
2018-08-22T20:15:19.825Z,26.23
2018-08-22T20:17:49.736Z,26.20
2018-08-22T20:20:18.537Z,26.17
2018-08-22T20:22:48.740Z,26.14
2018-08-22T20:25:16.945Z,26.10
2018-08-22T20:27:45.177Z,26.08
2018-08-22T20:30:15.651Z,26.07
2018-08-22T20:32:53.326Z,25.99
2018-08-22T20:35:26.905Z,25.99
2018-08-22T20:37:55.369Z,25.97
2018-08-22T20:40:23.581Z,25.92
2018-08-22T20:42:51.870Z,25.91
2018-08-22T20:45:29.261Z,25.82
2018-08-22T20:48:03.025Z,25.86
2018-08-22T20:50:31.293Z,25.83
2018-08-22T20:53:04.809Z,25.82
2018-08-22T20:55:33.325Z,25.80
2018-08-22T20:58:02.198Z,25.78
2018-08-22T21:00:30.502Z,25.71
2018-08-22T21:02:59.537Z,25.73
2018-08-22T21:05:27.881Z,25.71
2018-08-22T21:07:56.100Z,25.72
2018-08-22T21:10:24.365Z,25.70
2018-08-22T21:12:52.940Z,25.68
2018-08-22T21:15:21.242Z,25.65
2018-08-22T21:17:49.482Z,25.63
2018-08-22T21:20:23.774Z,25.58
2018-08-22T21:22:52.769Z,25.55
2018-08-22T21:25:20.973Z,25.53
2018-08-22T21:27:49.753Z,25.49
2018-08-22T21:30:18.210Z,25.46
2018-08-22T21:32:47.377Z,25.43
2018-08-22T21:35:25.671Z,25.41
2018-08-22T21:37:57.990Z,25.40
2018-08-22T21:40:26.214Z,25.37
2018-08-22T21:42:54.445Z,25.36
2018-08-22T21:45:22.657Z,25.34
2018-08-22T21:48:02.824Z,25.33
2018-08-22T21:50:31.049Z,25.31
2018-08-22T21:53:02.540Z,25.29
2018-08-22T21:55:36.016Z,25.24
2018-08-22T21:58:04.748Z,25.23
2018-08-22T22:00:33.025Z,25.21
2018-08-22T22:03:01.269Z,25.19
2018-08-22T22:05:40.861Z,25.17
2018-08-22T22:08:09.388Z,25.14
2018-08-22T22:10:37.665Z,25.13
2018-08-22T22:13:05.902Z,25.11
2018-08-22T22:15:39.449Z,25.08
2018-08-22T22:18:08.152Z,25.03
2018-08-22T22:20:36.405Z,25.02
2018-08-22T22:23:04.693Z,24.94
2018-08-22T22:25:32.897Z,24.96
2018-08-22T22:28:01.141Z,24.94
2018-08-22T22:30:29.371Z,24.89
2018-08-22T22:32:59.645Z,24.93
2018-08-22T22:35:33.114Z,24.92
2018-08-22T22:38:08.028Z,24.89
2018-08-22T22:40:36.513Z,24.89
2018-08-22T22:43:06.765Z,24.88
2018-08-22T22:45:35.198Z,24.86
2018-08-22T22:48:03.408Z,24.85
2018-08-22T22:50:31.652Z,24.84
2018-08-22T22:52:59.937Z,24.80
2018-08-22T22:55:28.705Z,24.77
2018-08-22T22:57:56.953Z,24.74
2018-08-22T23:00:25.197Z,24.70
2018-08-22T23:02:58.840Z,24.68
2018-08-22T23:05:31.249Z,24.66
2018-08-22T23:08:01.266Z,24.61
2018-08-22T23:10:29.506Z,24.59
2018-08-22T23:12:57.731Z,24.54
2018-08-22T23:15:28.089Z,24.49
2018-08-22T23:17:57.597Z,24.47
2018-08-22T23:20:29.477Z,24.45
2018-08-22T23:22:57.777Z,24.45
2018-08-22T23:25:26.400Z,24.43
2018-08-22T23:27:54.671Z,24.41
2018-08-22T23:30:32.609Z,24.40
2018-08-22T23:33:00.852Z,24.37
2018-08-22T23:35:30.260Z,24.34
2018-08-22T23:37:59.597Z,24.34
2018-08-22T23:40:28.904Z,24.31
2018-08-22T23:42:57.182Z,24.29
2018-08-22T23:45:25.396Z,24.20
2018-08-22T23:47:53.642Z,24.26
2018-08-22T23:50:22.002Z,24.25
2018-08-22T23:52:52.600Z,24.22
2018-08-22T23:55:21.897Z,24.21
2018-08-22T23:57:50.497Z,24.18
